sensor_id;sensor_type;location;lat;lon;timestamp;pressure;altitude;pressure_sealevel;temperature;humidity
13013;BME280;22580;57.670;12.006;2023-04-24T00:00:15;100069.00;;;18.30;68.59
13013;BME280;22580;57.670;12.006;2023-04-24T00:02:43;100068.50;;;18.26;68.56
13013;BME280;22580;57.670;12.006;2023-04-24T00:05:14;100068.16;;;18.29;68.60
13013;BME280;22580;57.670;12.006;2023-04-24T00:07:43;100073.13;;;18.18;68.93
13013;BME280;22580;57.670;12.006;2023-04-24T00:10:11;100073.56;;;18.29;68.54
13013;BME280;22580;57.670;12.006;2023-04-24T00:12:38;100067.06;;;18.16;69.69
13013;BME280;22580;57.670;12.006;2023-04-24T00:15:06;100050.06;;;18.30;68.48
13013;BME280;22580;57.670;12.006;2023-04-24T00:17:33;100065.59;;;18.36;68.46
13013;BME280;22580;57.670;12.006;2023-04-24T00:19:59;100057.84;;;18.25;68.64
13013;BME280;22580;57.670;12.006;2023-04-24T00:22:31;100045.50;;;18.70;66.34
13013;BME280;22580;57.670;12.006;2023-04-24T00:24:58;100058.47;;;18.82;65.69
13013;BME280;22580;57.670;12.006;2023-04-24T00:27:25;100062.63;;;18.62;65.94
13013;BME280;22580;57.670;12.006;2023-04-24T00:29:52;100058.28;;;18.45;66.50
13013;BME280;22580;57.670;12.006;2023-04-24T00:32:19;100066.00;;;18.56;66.00
13013;BME280;22580;57.670;12.006;2023-04-24T00:34:46;100053.75;;;18.37;66.76
13013;BME280;22580;57.670;12.006;2023-04-24T00:37:14;100052.44;;;18.25;67.12
13013;BME280;22580;57.670;12.006;2023-04-24T00:39:42;100047.47;;;18.45;66.77
13013;BME280;22580;57.670;12.006;2023-04-24T00:42:09;100050.69;;;18.40;66.63
13013;BME280;22580;57.670;12.006;2023-04-24T00:44:36;100051.69;;;18.47;66.23
13013;BME280;22580;57.670;12.006;2023-04-24T00:47:03;100049.63;;;18.49;66.01
13013;BME280;22580;57.670;12.006;2023-04-24T00:49:30;100046.63;;;18.44;65.85
13013;BME280;22580;57.670;12.006;2023-04-24T00:51:57;100049.22;;;18.29;66.24
13013;BME280;22580;57.670;12.006;2023-04-24T00:54:24;100058.19;;;18.30;66.30
13013;BME280;22580;57.670;12.006;2023-04-24T00:56:53;100060.03;;;17.90;67.66
13013;BME280;22580;57.670;12.006;2023-04-24T00:59:20;100059.59;;;18.18;67.00
13013;BME280;22580;57.670;12.006;2023-04-24T01:01:47;100055.75;;;18.04;67.45
13013;BME280;22580;57.670;12.006;2023-04-24T01:04:14;100042.28;;;17.88;68.23
13013;BME280;22580;57.670;12.006;2023-04-24T01:06:43;100048.00;;;18.01;68.08
13013;BME280;22580;57.670;12.006;2023-04-24T01:09:10;100031.31;;;17.89;68.10
13013;BME280;22580;57.670;12.006;2023-04-24T01:11:40;100050.56;;;17.94;68.99
13013;BME280;22580;57.670;12.006;2023-04-24T01:14:09;100051.38;;;18.03;68.18
13013;BME280;22580;57.670;12.006;2023-04-24T01:16:36;100058.69;;;18.25;67.91
13013;BME280;22580;57.670;12.006;2023-04-24T01:19:07;100054.03;;;18.19;67.91
13013;BME280;22580;57.670;12.006;2023-04-24T01:21:36;100056.47;;;17.98;68.73
13013;BME280;22580;57.670;12.006;2023-04-24T01:24:05;100052.72;;;18.07;68.39
13013;BME280;22580;57.670;12.006;2023-04-24T01:26:33;100046.22;;;17.69;69.79
13013;BME280;22580;57.670;12.006;2023-04-24T01:29:00;100044.81;;;18.28;67.94
13013;BME280;22580;57.670;12.006;2023-04-24T01:31:27;100034.53;;;18.24;67.45
13013;BME280;22580;57.670;12.006;2023-04-24T01:33:56;100043.59;;;18.00;68.82
13013;BME280;22580;57.670;12.006;2023-04-24T01:36:24;100029.09;;;17.93;67.68
13013;BME280;22580;57.670;12.006;2023-04-24T01:38:52;100043.44;;;18.01;68.23
13013;BME280;22580;57.670;12.006;2023-04-24T01:41:21;100027.94;;;17.87;69.26
13013;BME280;22580;57.670;12.006;2023-04-24T01:43:48;100041.06;;;18.07;68.25
13013;BME280;22580;57.670;12.006;2023-04-24T01:46:16;100030.22;;;18.15;67.79
13013;BME280;22580;57.670;12.006;2023-04-24T01:48:44;100036.94;;;18.50;66.40
13013;BME280;22580;57.670;12.006;2023-04-24T01:51:12;100042.81;;;18.22;67.28
13013;BME280;22580;57.670;12.006;2023-04-24T01:53:39;100028.16;;;18.17;68.01
13013;BME280;22580;57.670;12.006;2023-04-24T01:56:06;100021.63;;;18.34;66.96
13013;BME280;22580;57.670;12.006;2023-04-24T01:58:35;100017.56;;;18.38;66.55
13013;BME280;22580;57.670;12.006;2023-04-24T02:01:02;100016.84;;;18.44;66.46
13013;BME280;22580;57.670;12.006;2023-04-24T02:03:29;99996.94;;;18.06;66.97
13013;BME280;22580;57.670;12.006;2023-04-24T02:05:56;100028.69;;;18.12;67.47
13013;BME280;22580;57.670;12.006;2023-04-24T02:08:23;100032.75;;;18.08;67.86
13013;BME280;22580;57.670;12.006;2023-04-24T02:10:50;100033.34;;;18.26;67.20
13013;BME280;22580;57.670;12.006;2023-04-24T02:13:17;100029.75;;;18.34;67.31
13013;BME280;22580;57.670;12.006;2023-04-24T02:15:46;100017.34;;;18.48;66.91
13013;BME280;22580;57.670;12.006;2023-04-24T02:18:12;99987.97;;;18.37;66.75
13013;BME280;22580;57.670;12.006;2023-04-24T02:20:40;100000.88;;;18.57;66.38
13013;BME280;22580;57.670;12.006;2023-04-24T02:23:07;99981.81;;;18.51;65.93
13013;BME280;22580;57.670;12.006;2023-04-24T02:25:34;99996.81;;;18.61;65.79
13013;BME280;22580;57.670;12.006;2023-04-24T02:28:01;99993.34;;;18.45;66.45
13013;BME280;22580;57.670;12.006;2023-04-24T02:30:28;99984.25;;;18.38;66.79
13013;BME280;22580;57.670;12.006;2023-04-24T02:32:57;99996.56;;;18.40;67.09
13013;BME280;22580;57.670;12.006;2023-04-24T02:35:24;99998.22;;;17.63;69.70
13013;BME280;22580;57.670;12.006;2023-04-24T02:37:51;100012.16;;;17.19;72.63
13013;BME280;22580;57.670;12.006;2023-04-24T02:40:18;100008.06;;;18.11;69.50
13013;BME280;22580;57.670;12.006;2023-04-24T02:42:45;100003.50;;;18.12;69.49
13013;BME280;22580;57.670;12.006;2023-04-24T02:45:13;99992.63;;;17.64;71.00
13013;BME280;22580;57.670;12.006;2023-04-24T02:47:39;99988.81;;;18.06;69.51
13013;BME280;22580;57.670;12.006;2023-04-24T02:50:08;99974.13;;;18.00;69.53
13013;BME280;22580;57.670;12.006;2023-04-24T02:52:35;99968.72;;;18.00;69.46
13013;BME280;22580;57.670;12.006;2023-04-24T02:55:02;99983.13;;;17.21;73.91
13013;BME280;22580;57.670;12.006;2023-04-24T02:57:29;99986.66;;;16.97;74.55
13013;BME280;22580;57.670;12.006;2023-04-24T02:59:56;99976.19;;;16.70;76.00
13013;BME280;22580;57.670;12.006;2023-04-24T03:02:23;99978.13;;;17.57;72.75
13013;BME280;22580;57.670;12.006;2023-04-24T03:04:50;99981.28;;;17.85;71.02
13013;BME280;22580;57.670;12.006;2023-04-24T03:07:18;99966.06;;;17.92;70.11
13013;BME280;22580;57.670;12.006;2023-04-24T03:09:46;99959.22;;;17.57;71.20
13013;BME280;22580;57.670;12.006;2023-04-24T03:12:13;99971.97;;;17.24;72.39
13013;BME280;22580;57.670;12.006;2023-04-24T03:14:39;99972.66;;;17.10;73.47
13013;BME280;22580;57.670;12.006;2023-04-24T03:17:06;99972.56;;;17.59;73.61
13013;BME280;22580;57.670;12.006;2023-04-24T03:19:33;99970.88;;;17.50;73.13
13013;BME280;22580;57.670;12.006;2023-04-24T03:22:01;99960.41;;;17.55;73.02
13013;BME280;22580;57.670;12.006;2023-04-24T03:24:30;99959.03;;;17.75;72.58
13013;BME280;22580;57.670;12.006;2023-04-24T03:26:56;99960.16;;;17.89;71.91
13013;BME280;22580;57.670;12.006;2023-04-24T03:29:23;99952.00;;;17.97;71.31
13013;BME280;22580;57.670;12.006;2023-04-24T03:31:51;99959.97;;;18.21;69.57
13013;BME280;22580;57.670;12.006;2023-04-24T03:34:17;99948.31;;;17.90;70.38
13013;BME280;22580;57.670;12.006;2023-04-24T03:36:45;99956.69;;;18.11;70.09
13013;BME280;22580;57.670;12.006;2023-04-24T03:39:13;99908.66;;;17.82;69.80
13013;BME280;22580;57.670;12.006;2023-04-24T03:41:42;99944.00;;;18.12;69.23
13013;BME280;22580;57.670;12.006;2023-04-24T03:44:09;99927.81;;;18.04;69.52
13013;BME280;22580;57.670;12.006;2023-04-24T03:46:36;99943.09;;;17.25;73.58
13013;BME280;22580;57.670;12.006;2023-04-24T03:49:03;99940.72;;;17.30;72.82
13013;BME280;22580;57.670;12.006;2023-04-24T03:51:30;99933.06;;;18.05;71.37
13013;BME280;22580;57.670;12.006;2023-04-24T03:53:57;99908.88;;;17.56;70.59
13013;BME280;22580;57.670;12.006;2023-04-24T03:56:24;99934.91;;;18.05;71.39
13013;BME280;22580;57.670;12.006;2023-04-24T03:58:52;99899.34;;;18.16;68.86
13013;BME280;22580;57.670;12.006;2023-04-24T04:01:19;99924.78;;;18.52;68.01
13013;BME280;22580;57.670;12.006;2023-04-24T04:03:46;99932.28;;;18.73;66.88
13013;BME280;22580;57.670;12.006;2023-04-24T04:06:13;99934.50;;;18.70;67.56
13013;BME280;22580;57.670;12.006;2023-04-24T04:08:40;99935.72;;;18.67;66.42
13013;BME280;22580;57.670;12.006;2023-04-24T04:11:07;99935.16;;;18.72;66.83
13013;BME280;22580;57.670;12.006;2023-04-24T04:13:33;99937.63;;;18.81;66.18
13013;BME280;22580;57.670;12.006;2023-04-24T04:16:02;99939.69;;;18.79;66.45
13013;BME280;22580;57.670;12.006;2023-04-24T04:18:29;99937.94;;;18.86;65.71
13013;BME280;22580;57.670;12.006;2023-04-24T04:20:56;99928.06;;;18.93;65.43
13013;BME280;22580;57.670;12.006;2023-04-24T04:23:23;99940.28;;;18.89;65.98
13013;BME280;22580;57.670;12.006;2023-04-24T04:25:50;99933.00;;;18.90;65.16
13013;BME280;22580;57.670;12.006;2023-04-24T04:28:17;99914.81;;;19.13;64.87
13013;BME280;22580;57.670;12.006;2023-04-24T04:30:45;99915.53;;;19.07;64.88
13013;BME280;22580;57.670;12.006;2023-04-24T04:33:13;99919.31;;;19.21;64.02
13013;BME280;22580;57.670;12.006;2023-04-24T04:35:41;99918.34;;;19.14;63.86
13013;BME280;22580;57.670;12.006;2023-04-24T04:38:08;99929.47;;;19.19;64.09
13013;BME280;22580;57.670;12.006;2023-04-24T04:40:36;99930.78;;;19.23;64.86
13013;BME280;22580;57.670;12.006;2023-04-24T04:43:03;99929.78;;;19.39;63.85
13013;BME280;22580;57.670;12.006;2023-04-24T04:45:30;99907.72;;;19.27;63.56
13013;BME280;22580;57.670;12.006;2023-04-24T04:47:58;99932.88;;;19.50;62.43
13013;BME280;22580;57.670;12.006;2023-04-24T04:50:27;99927.38;;;19.44;62.20
13013;BME280;22580;57.670;12.006;2023-04-24T04:52:54;99915.31;;;19.31;62.38
13013;BME280;22580;57.670;12.006;2023-04-24T04:55:21;99925.44;;;19.52;62.20
13013;BME280;22580;57.670;12.006;2023-04-24T04:57:53;99923.63;;;19.30;63.51
13013;BME280;22580;57.670;12.006;2023-04-24T05:00:21;99882.59;;;19.04;62.72
13013;BME280;22580;57.670;12.006;2023-04-24T05:02:49;99931.09;;;19.28;62.88
13013;BME280;22580;57.670;12.006;2023-04-24T05:05:17;99928.56;;;19.26;63.13
13013;BME280;22580;57.670;12.006;2023-04-24T05:07:45;99915.91;;;19.56;61.36
13013;BME280;22580;57.670;12.006;2023-04-24T05:10:12;99911.31;;;19.57;61.50
13013;BME280;22580;57.670;12.006;2023-04-24T05:12:39;99921.13;;;19.58;61.43
13013;BME280;22580;57.670;12.006;2023-04-24T05:15:07;99925.91;;;19.56;62.08
13013;BME280;22580;57.670;12.006;2023-04-24T05:17:44;99924.94;;;19.34;63.60
13013;BME280;22580;57.670;12.006;2023-04-24T05:20:11;99928.09;;;19.23;62.81
13013;BME280;22580;57.670;12.006;2023-04-24T05:22:38;99924.72;;;19.21;63.28
13013;BME280;22580;57.670;12.006;2023-04-24T05:25:07;99924.97;;;19.11;63.46
13013;BME280;22580;57.670;12.006;2023-04-24T05:27:35;99891.25;;;18.84;64.99
13013;BME280;22580;57.670;12.006;2023-04-24T05:30:03;99918.53;;;18.97;64.91
13013;BME280;22580;57.670;12.006;2023-04-24T05:32:30;99922.47;;;18.95;64.02
13013;BME280;22580;57.670;12.006;2023-04-24T05:34:57;99926.22;;;18.71;64.21
13013;BME280;22580;57.670;12.006;2023-04-24T05:37:25;99922.56;;;18.56;64.71
13013;BME280;22580;57.670;12.006;2023-04-24T05:39:52;99923.75;;;18.08;67.27
13013;BME280;22580;57.670;12.006;2023-04-24T05:42:21;99922.91;;;18.30;66.74
13013;BME280;22580;57.670;12.006;2023-04-24T05:44:48;99929.88;;;18.24;66.89
13013;BME280;22580;57.670;12.006;2023-04-24T05:47:15;99918.56;;;18.75;65.24
13013;BME280;22580;57.670;12.006;2023-04-24T05:49:42;99912.06;;;18.84;64.80
13013;BME280;22580;57.670;12.006;2023-04-24T05:52:09;99924.50;;;18.93;64.24
13013;BME280;22580;57.670;12.006;2023-04-24T05:54:36;99888.28;;;18.94;63.54
13013;BME280;22580;57.670;12.006;2023-04-24T05:57:03;99918.47;;;19.06;63.11
13013;BME280;22580;57.670;12.006;2023-04-24T05:59:36;99924.75;;;18.83;64.23
13013;BME280;22580;57.670;12.006;2023-04-24T06:02:03;99926.97;;;19.03;63.33
13013;BME280;22580;57.670;12.006;2023-04-24T06:04:31;99922.94;;;18.98;63.88
13013;BME280;22580;57.670;12.006;2023-04-24T06:06:58;99931.38;;;18.81;64.33
13013;BME280;22580;57.670;12.006;2023-04-24T06:09:26;99922.13;;;18.75;64.47
13013;BME280;22580;57.670;12.006;2023-04-24T06:11:53;99917.09;;;18.41;65.39
13013;BME280;22580;57.670;12.006;2023-04-24T06:14:20;99910.97;;;18.93;63.52
13013;BME280;22580;57.670;12.006;2023-04-24T06:16:48;99899.94;;;18.49;67.10
13013;BME280;22580;57.670;12.006;2023-04-24T06:19:15;99904.09;;;19.05;66.03
13013;BME280;22580;57.670;12.006;2023-04-24T06:21:42;99896.66;;;19.51;62.22
13013;BME280;22580;57.670;12.006;2023-04-24T06:24:08;99897.97;;;19.55;62.46
13013;BME280;22580;57.670;12.006;2023-04-24T06:26:36;99902.16;;;19.87;61.13
13013;BME280;22580;57.670;12.006;2023-04-24T06:29:02;99896.81;;;19.79;60.80
13013;BME280;22580;57.670;12.006;2023-04-24T06:31:30;99895.22;;;19.85;60.88
13013;BME280;22580;57.670;12.006;2023-04-24T06:34:03;99862.88;;;19.83;59.91
13013;BME280;22580;57.670;12.006;2023-04-24T06:36:30;99885.38;;;20.20;58.73
13013;BME280;22580;57.670;12.006;2023-04-24T06:38:59;99858.16;;;18.74;61.63
13013;BME280;22580;57.670;12.006;2023-04-24T06:41:26;99892.69;;;19.83;60.24
13013;BME280;22580;57.670;12.006;2023-04-24T06:43:53;99895.31;;;20.13;57.58
13013;BME280;22580;57.670;12.006;2023-04-24T06:46:21;99889.28;;;19.96;58.05
13013;BME280;22580;57.670;12.006;2023-04-24T06:48:51;99900.47;;;19.72;58.01
13013;BME280;22580;57.670;12.006;2023-04-24T06:51:22;99900.47;;;19.57;59.57
13013;BME280;22580;57.670;12.006;2023-04-24T06:53:50;99905.16;;;19.78;59.03
13013;BME280;22580;57.670;12.006;2023-04-24T06:56:17;99908.69;;;19.49;59.74
13013;BME280;22580;57.670;12.006;2023-04-24T06:58:44;99908.38;;;19.29;60.45
13013;BME280;22580;57.670;12.006;2023-04-24T07:01:11;99914.59;;;19.52;59.87
13013;BME280;22580;57.670;12.006;2023-04-24T07:03:38;99903.53;;;19.24;60.84
13013;BME280;22580;57.670;12.006;2023-04-24T07:06:05;99930.78;;;19.23;62.27
13013;BME280;22580;57.670;12.006;2023-04-24T07:08:34;99921.78;;;19.75;61.15
13013;BME280;22580;57.670;12.006;2023-04-24T07:11:01;99911.78;;;20.11;59.86
13013;BME280;22580;57.670;12.006;2023-04-24T07:13:28;99921.16;;;20.09;60.00
13013;BME280;22580;57.670;12.006;2023-04-24T07:15:55;99927.34;;;19.29;61.26
13013;BME280;22580;57.670;12.006;2023-04-24T07:18:22;99932.47;;;19.24;62.08
13013;BME280;22580;57.670;12.006;2023-04-24T07:20:49;99926.13;;;19.17;62.83
13013;BME280;22580;57.670;12.006;2023-04-24T07:23:17;99932.09;;;19.12;63.03
13013;BME280;22580;57.670;12.006;2023-04-24T07:25:45;99933.41;;;18.79;65.33
13013;BME280;22580;57.670;12.006;2023-04-24T07:28:12;99933.78;;;18.76;65.92
13013;BME280;22580;57.670;12.006;2023-04-24T07:30:39;99941.91;;;19.13;64.40
13013;BME280;22580;57.670;12.006;2023-04-24T07:33:06;99899.63;;;18.75;64.76
13013;BME280;22580;57.670;12.006;2023-04-24T07:35:33;99932.75;;;19.14;64.67
13013;BME280;22580;57.670;12.006;2023-04-24T07:38:00;99932.28;;;19.11;64.16
13013;BME280;22580;57.670;12.006;2023-04-24T07:40:27;99944.25;;;18.79;65.82
13013;BME280;22580;57.670;12.006;2023-04-24T07:42:56;99943.47;;;18.93;66.15
13013;BME280;22580;57.670;12.006;2023-04-24T07:45:23;99936.28;;;18.54;66.90
13013;BME280;22580;57.670;12.006;2023-04-24T07:47:51;99960.47;;;19.02;66.53
13013;BME280;22580;57.670;12.006;2023-04-24T07:50:18;99971.03;;;19.11;66.34
13013;BME280;22580;57.670;12.006;2023-04-24T07:52:45;99959.97;;;18.83;67.70
13013;BME280;22580;57.670;12.006;2023-04-24T07:55:13;99953.28;;;18.94;68.22
13013;BME280;22580;57.670;12.006;2023-04-24T07:57:42;99966.25;;;18.98;68.71
13013;BME280;22580;57.670;12.006;2023-04-24T08:00:11;99933.59;;;19.15;70.66
13013;BME280;22580;57.670;12.006;2023-04-24T08:02:38;99964.78;;;19.11;72.85
13013;BME280;22580;57.670;12.006;2023-04-24T08:05:06;99968.38;;;19.26;73.13
13013;BME280;22580;57.670;12.006;2023-04-24T08:07:33;99963.88;;;19.33;73.14
13013;BME280;22580;57.670;12.006;2023-04-24T08:10:00;99953.56;;;19.14;72.61
13013;BME280;22580;57.670;12.006;2023-04-24T08:12:28;99965.06;;;19.01;72.51
13013;BME280;22580;57.670;12.006;2023-04-24T08:14:55;99945.63;;;18.75;74.57
13013;BME280;22580;57.670;12.006;2023-04-24T08:17:24;99950.97;;;19.06;73.21
13013;BME280;22580;57.670;12.006;2023-04-24T08:19:51;99940.81;;;19.37;75.82
13013;BME280;22580;57.670;12.006;2023-04-24T08:22:24;99932.03;;;19.35;71.87
13013;BME280;22580;57.670;12.006;2023-04-24T08:24:51;99936.00;;;18.95;71.46
13013;BME280;22580;57.670;12.006;2023-04-24T08:27:26;99938.94;;;18.85;72.40
13013;BME280;22580;57.670;12.006;2023-04-24T08:29:53;99930.66;;;18.64;72.78
13013;BME280;22580;57.670;12.006;2023-04-24T08:32:21;99924.25;;;19.03;73.85
13013;BME280;22580;57.670;12.006;2023-04-24T08:34:49;99926.31;;;18.78;73.28
13013;BME280;22580;57.670;12.006;2023-04-24T08:37:18;99930.88;;;18.54;74.05
13013;BME280;22580;57.670;12.006;2023-04-24T08:39:44;99919.69;;;18.57;74.50
13013;BME280;22580;57.670;12.006;2023-04-24T08:42:13;99922.00;;;18.69;75.09
13013;BME280;22580;57.670;12.006;2023-04-24T08:44:42;99923.25;;;18.27;76.11
13013;BME280;22580;57.670;12.006;2023-04-24T08:47:10;99918.72;;;18.50;75.97
13013;BME280;22580;57.670;12.006;2023-04-24T08:49:38;99906.31;;;18.56;75.66
13013;BME280;22580;57.670;12.006;2023-04-24T08:52:07;99910.84;;;18.18;76.72
13013;BME280;22580;57.670;12.006;2023-04-24T08:54:34;99903.75;;;18.17;76.28
13013;BME280;22580;57.670;12.006;2023-04-24T08:57:02;99898.81;;;17.89;76.39
13013;BME280;22580;57.670;12.006;2023-04-24T08:59:30;99910.34;;;18.14;75.95
13013;BME280;22580;57.670;12.006;2023-04-24T09:01:59;99902.41;;;18.13;74.96
13013;BME280;22580;57.670;12.006;2023-04-24T09:04:27;99895.81;;;18.15;74.35
13013;BME280;22580;57.670;12.006;2023-04-24T09:06:57;99906.00;;;18.05;74.29
13013;BME280;22580;57.670;12.006;2023-04-24T09:09:25;99896.09;;;18.43;73.88
13013;BME280;22580;57.670;12.006;2023-04-24T09:11:52;99892.06;;;18.39;72.47
13013;BME280;22580;57.670;12.006;2023-04-24T09:14:21;99895.44;;;18.41;72.53
13013;BME280;22580;57.670;12.006;2023-04-24T09:16:49;99875.91;;;18.08;73.02
13013;BME280;22580;57.670;12.006;2023-04-24T09:19:16;99884.06;;;18.46;72.29
13013;BME280;22580;57.670;12.006;2023-04-24T09:21:45;99880.69;;;18.21;73.57
13013;BME280;22580;57.670;12.006;2023-04-24T09:24:15;99866.00;;;18.69;76.39
13013;BME280;22580;57.670;12.006;2023-04-24T09:26:45;99867.91;;;19.13;74.66
13013;BME280;22580;57.670;12.006;2023-04-24T09:29:14;99852.06;;;19.54;71.53
13013;BME280;22580;57.670;12.006;2023-04-24T09:31:42;99854.66;;;19.32;68.70
13013;BME280;22580;57.670;12.006;2023-04-24T09:34:11;99865.13;;;19.21;69.30
13013;BME280;22580;57.670;12.006;2023-04-24T09:36:39;99869.94;;;18.81;71.02
13013;BME280;22580;57.670;12.006;2023-04-24T09:39:07;99867.38;;;18.65;70.28
13013;BME280;22580;57.670;12.006;2023-04-24T09:41:45;99867.44;;;18.94;70.76
13013;BME280;22580;57.670;12.006;2023-04-24T09:44:13;99866.34;;;18.66;73.93
13013;BME280;22580;57.670;12.006;2023-04-24T09:46:41;99847.56;;;19.02;74.00
13013;BME280;22580;57.670;12.006;2023-04-24T09:49:09;99852.31;;;19.44;73.22
13013;BME280;22580;57.670;12.006;2023-04-24T09:51:38;99848.84;;;19.80;71.52
13013;BME280;22580;57.670;12.006;2023-04-24T09:54:13;99855.06;;;19.95;69.28
13013;BME280;22580;57.670;12.006;2023-04-24T09:56:44;99849.22;;;19.77;68.18
13013;BME280;22580;57.670;12.006;2023-04-24T09:59:12;99836.72;;;19.97;67.78
13013;BME280;22580;57.670;12.006;2023-04-24T10:01:39;99840.63;;;19.73;65.33
13013;BME280;22580;57.670;12.006;2023-04-24T10:04:25;99821.66;;;19.94;65.61
13013;BME280;22580;57.670;12.006;2023-04-24T10:06:54;99828.91;;;20.09;64.09
13013;BME280;22580;57.670;12.006;2023-04-24T10:09:22;99828.47;;;20.05;64.74
13013;BME280;22580;57.670;12.006;2023-04-24T10:11:52;99832.28;;;19.89;63.93
13013;BME280;22580;57.670;12.006;2023-04-24T10:14:21;99821.47;;;19.75;63.36
13013;BME280;22580;57.670;12.006;2023-04-24T10:16:49;99820.09;;;18.90;67.33
13013;BME280;22580;57.670;12.006;2023-04-24T10:19:16;99817.00;;;19.08;67.94
13013;BME280;22580;57.670;12.006;2023-04-24T10:21:44;99814.19;;;18.72;68.89
13013;BME280;22580;57.670;12.006;2023-04-24T10:24:13;99806.00;;;18.80;69.83
13013;BME280;22580;57.670;12.006;2023-04-24T10:26:41;99792.81;;;19.21;69.33
13013;BME280;22580;57.670;12.006;2023-04-24T10:29:10;99784.63;;;19.00;69.39
13013;BME280;22580;57.670;12.006;2023-04-24T10:31:38;99779.84;;;19.02;70.28
13013;BME280;22580;57.670;12.006;2023-04-24T10:34:06;99761.25;;;19.14;70.44
13013;BME280;22580;57.670;12.006;2023-04-24T10:36:34;99786.91;;;19.18;70.78
13013;BME280;22580;57.670;12.006;2023-04-24T10:39:04;99778.50;;;19.27;72.04
13013;BME280;22580;57.670;12.006;2023-04-24T10:41:32;99776.72;;;19.49;71.17
13013;BME280;22580;57.670;12.006;2023-04-24T10:44:09;99780.13;;;19.73;70.37
13013;BME280;22580;57.670;12.006;2023-04-24T10:46:36;99757.22;;;20.18;71.33
13013;BME280;22580;57.670;12.006;2023-04-24T10:49:04;99767.09;;;20.47;71.03
13013;BME280;22580;57.670;12.006;2023-04-24T10:51:45;99768.13;;;20.74;68.61
13013;BME280;22580;57.670;12.006;2023-04-24T10:54:23;99775.19;;;21.03;67.78
13013;BME280;22580;57.670;12.006;2023-04-24T10:56:50;99765.56;;;21.00;67.77
13013;BME280;22580;57.670;12.006;2023-04-24T10:59:25;99696.50;;;20.81;66.82
13013;BME280;22580;57.670;12.006;2023-04-24T11:01:53;99718.16;;;21.50;65.23
13013;BME280;22580;57.670;12.006;2023-04-24T11:04:29;99754.63;;;21.89;64.34
13013;BME280;22580;57.670;12.006;2023-04-24T11:06:56;99753.13;;;21.60;63.48
13013;BME280;22580;57.670;12.006;2023-04-24T11:09:26;99754.78;;;21.68;62.88
13013;BME280;22580;57.670;12.006;2023-04-24T11:12:03;99733.41;;;21.45;62.84
13013;BME280;22580;57.670;12.006;2023-04-24T11:14:59;99743.22;;;21.39;62.93
13013;BME280;22580;57.670;12.006;2023-04-24T11:17:32;99742.69;;;21.64;63.03
13013;BME280;22580;57.670;12.006;2023-04-24T11:20:02;99729.47;;;21.54;62.54
13013;BME280;22580;57.670;12.006;2023-04-24T11:22:33;99739.34;;;21.88;62.07
13013;BME280;22580;57.670;12.006;2023-04-24T11:25:00;99727.47;;;22.02;60.86
13013;BME280;22580;57.670;12.006;2023-04-24T11:27:30;99723.84;;;21.82;62.22
13013;BME280;22580;57.670;12.006;2023-04-24T11:30:03;99721.63;;;22.32;62.51
13013;BME280;22580;57.670;12.006;2023-04-24T11:32:33;99721.84;;;22.37;59.72
13013;BME280;22580;57.670;12.006;2023-04-24T11:35:02;99722.41;;;21.99;62.22
13013;BME280;22580;57.670;12.006;2023-04-24T11:37:34;99726.34;;;21.77;61.65
13013;BME280;22580;57.670;12.006;2023-04-24T11:40:03;99719.06;;;21.90;60.76
13013;BME280;22580;57.670;12.006;2023-04-24T11:42:34;99727.63;;;21.81;60.27
13013;BME280;22580;57.670;12.006;2023-04-24T11:45:07;99724.72;;;21.89;60.92
13013;BME280;22580;57.670;12.006;2023-04-24T11:47:34;99710.75;;;22.05;59.99
13013;BME280;22580;57.670;12.006;2023-04-24T11:50:03;99726.44;;;22.36;59.49
13013;BME280;22580;57.670;12.006;2023-04-24T11:52:30;99717.03;;;22.39;59.78
13013;BME280;22580;57.670;12.006;2023-04-24T11:54:58;99696.50;;;22.36;58.71
13013;BME280;22580;57.670;12.006;2023-04-24T11:57:27;99725.13;;;22.65;57.30
13013;BME280;22580;57.670;12.006;2023-04-24T11:59:58;99710.13;;;22.36;58.41
13013;BME280;22580;57.670;12.006;2023-04-24T12:02:27;99702.78;;;22.23;57.29
13013;BME280;22580;57.670;12.006;2023-04-24T12:04:54;99730.22;;;22.15;58.89
13013;BME280;22580;57.670;12.006;2023-04-24T12:07:22;99727.41;;;21.76;60.32
13013;BME280;22580;57.670;12.006;2023-04-24T12:09:55;99714.66;;;21.83;60.36
13013;BME280;22580;57.670;12.006;2023-04-24T12:12:25;99700.44;;;21.87;60.23
13013;BME280;22580;57.670;12.006;2023-04-24T12:14:53;99719.53;;;22.14;59.79
13013;BME280;22580;57.670;12.006;2023-04-24T12:17:27;99688.50;;;21.82;59.63
13013;BME280;22580;57.670;12.006;2023-04-24T12:19:59;99699.88;;;21.24;60.48
13013;BME280;22580;57.670;12.006;2023-04-24T12:22:27;99712.75;;;21.70;59.81
13013;BME280;22580;57.670;12.006;2023-04-24T12:25:00;99707.06;;;21.52;59.78
13013;BME280;22580;57.670;12.006;2023-04-24T12:27:30;99691.91;;;22.04;58.77
13013;BME280;22580;57.670;12.006;2023-04-24T12:29:58;99703.78;;;21.89;58.87
13013;BME280;22580;57.670;12.006;2023-04-24T12:32:27;99697.63;;;21.41;60.80
13013;BME280;22580;57.670;12.006;2023-04-24T12:34:54;99694.31;;;21.52;60.34
13013;BME280;22580;57.670;12.006;2023-04-24T12:37:23;99698.31;;;21.56;60.22
13013;BME280;22580;57.670;12.006;2023-04-24T12:40:02;99695.78;;;21.48;60.18
13013;BME280;22580;57.670;12.006;2023-04-24T12:42:29;99701.19;;;21.42;60.87
13013;BME280;22580;57.670;12.006;2023-04-24T12:44:57;99699.56;;;21.06;61.68
13013;BME280;22580;57.670;12.006;2023-04-24T12:47:28;99652.41;;;21.27;60.76
13013;BME280;22580;57.670;12.006;2023-04-24T12:49:55;99683.88;;;21.69;59.71
13013;BME280;22580;57.670;12.006;2023-04-24T12:52:22;99691.56;;;21.39;60.38